sensor_id;sensor_type;location;lat;lon;timestamp;P1;durP1;ratioP1;P2;durP2;ratioP2
75890;SDS011;64571;47.512;19.054;2023-03-24T00:01:22;18.48;;;9.80;;
75890;SDS011;64571;47.512;19.054;2023-03-24T00:04:25;14.98;;;9.18;;
75890;SDS011;64571;47.512;19.054;2023-03-24T00:07:28;19.00;;;9.32;;
75890;SDS011;64571;47.512;19.054;2023-03-24T00:10:31;22.47;;;8.80;;
75890;SDS011;64571;47.512;19.054;2023-03-24T00:13:43;19.10;;;9.48;;
75890;SDS011;64571;47.512;19.054;2023-03-24T00:16:48;17.92;;;9.65;;
75890;SDS011;64571;47.512;19.054;2023-03-24T00:19:51;17.95;;;9.40;;
75890;SDS011;64571;47.512;19.054;2023-03-24T00:22:54;17.77;;;9.23;;
75890;SDS011;64571;47.512;19.054;2023-03-24T00:26:04;28.27;;;9.83;;
75890;SDS011;64571;47.512;19.054;2023-03-24T00:29:10;22.45;;;10.65;;
75890;SDS011;64571;47.512;19.054;2023-03-24T00:32:12;20.05;;;9.25;;
75890;SDS011;64571;47.512;19.054;2023-03-24T00:35:15;22.55;;;9.55;;
75890;SDS011;64571;47.512;19.054;2023-03-24T00:38:19;16.33;;;9.68;;
75890;SDS011;64571;47.512;19.054;2023-03-24T00:41:22;18.00;;;10.30;;
75890;SDS011;64571;47.512;19.054;2023-03-24T00:44:27;19.80;;;9.80;;
75890;SDS011;64571;47.512;19.054;2023-03-24T00:47:31;20.92;;;10.15;;
75890;SDS011;64571;47.512;19.054;2023-03-24T00:50:38;18.62;;;10.55;;
75890;SDS011;64571;47.512;19.054;2023-03-24T00:53:40;19.02;;;10.00;;
75890;SDS011;64571;47.512;19.054;2023-03-24T00:56:44;20.87;;;9.83;;
75890;SDS011;64571;47.512;19.054;2023-03-24T00:59:51;18.10;;;10.02;;
75890;SDS011;64571;47.512;19.054;2023-03-24T01:02:56;20.20;;;10.00;;
75890;SDS011;64571;47.512;19.054;2023-03-24T01:05:59;18.42;;;10.75;;
75890;SDS011;64571;47.512;19.054;2023-03-24T01:09:05;18.70;;;11.10;;
75890;SDS011;64571;47.512;19.054;2023-03-24T01:12:08;18.10;;;10.77;;
75890;SDS011;64571;47.512;19.054;2023-03-24T01:15:13;19.85;;;9.73;;
75890;SDS011;64571;47.512;19.054;2023-03-24T01:18:18;17.87;;;10.50;;
75890;SDS011;64571;47.512;19.054;2023-03-24T01:21:21;19.12;;;10.60;;
75890;SDS011;64571;47.512;19.054;2023-03-24T01:24:26;16.85;;;10.20;;
75890;SDS011;64571;47.512;19.054;2023-03-24T01:27:30;19.90;;;10.43;;
75890;SDS011;64571;47.512;19.054;2023-03-24T01:30:33;17.75;;;10.25;;
75890;SDS011;64571;47.512;19.054;2023-03-24T01:33:36;19.83;;;10.93;;
75890;SDS011;64571;47.512;19.054;2023-03-24T01:36:39;20.05;;;11.43;;
75890;SDS011;64571;47.512;19.054;2023-03-24T01:39:42;21.10;;;11.07;;
75890;SDS011;64571;47.512;19.054;2023-03-24T01:42:44;18.83;;;11.07;;
75890;SDS011;64571;47.512;19.054;2023-03-24T01:45:53;20.60;;;11.25;;
75890;SDS011;64571;47.512;19.054;2023-03-24T01:49:01;20.17;;;11.15;;
75890;SDS011;64571;47.512;19.054;2023-03-24T01:52:08;19.98;;;11.60;;
75890;SDS011;64571;47.512;19.054;2023-03-24T01:55:16;18.52;;;11.25;;
75890;SDS011;64571;47.512;19.054;2023-03-24T01:58:22;21.10;;;11.90;;
75890;SDS011;64571;47.512;19.054;2023-03-24T02:01:30;22.52;;;11.40;;
75890;SDS011;64571;47.512;19.054;2023-03-24T02:04:40;20.17;;;11.48;;
75890;SDS011;64571;47.512;19.054;2023-03-24T02:07:56;20.37;;;11.25;;
75890;SDS011;64571;47.512;19.054;2023-03-24T02:11:05;18.40;;;10.63;;
75890;SDS011;64571;47.512;19.054;2023-03-24T02:14:10;22.43;;;11.10;;
75890;SDS011;64571;47.512;19.054;2023-03-24T02:40:57;21.17;;;12.35;;
75890;SDS011;64571;47.512;19.054;2023-03-24T02:44:06;19.45;;;11.52;;
75890;SDS011;64571;47.512;19.054;2023-03-24T02:50:26;19.85;;;11.57;;
75890;SDS011;64571;47.512;19.054;2023-03-24T02:56:50;21.40;;;11.23;;
75890;SDS011;64571;47.512;19.054;2023-03-24T03:03:15;20.57;;;12.90;;
75890;SDS011;64571;47.512;19.054;2023-03-24T03:06:20;21.20;;;12.05;;
75890;SDS011;64571;47.512;19.054;2023-03-24T03:09:28;23.05;;;12.20;;
75890;SDS011;64571;47.512;19.054;2023-03-24T03:12:32;20.27;;;12.55;;
75890;SDS011;64571;47.512;19.054;2023-03-24T03:15:38;22.60;;;12.77;;
75890;SDS011;64571;47.512;19.054;2023-03-24T03:18:47;22.33;;;12.97;;
75890;SDS011;64571;47.512;19.054;2023-03-24T03:21:52;20.30;;;12.82;;
75890;SDS011;64571;47.512;19.054;2023-03-24T03:24:57;22.02;;;13.70;;
75890;SDS011;64571;47.512;19.054;2023-03-24T03:28:04;21.55;;;13.02;;
75890;SDS011;64571;47.512;19.054;2023-03-24T03:31:10;22.60;;;12.80;;
75890;SDS011;64571;47.512;19.054;2023-03-24T03:41:23;21.60;;;12.35;;
75890;SDS011;64571;47.512;19.054;2023-03-24T03:44:25;28.38;;;12.70;;
75890;SDS011;64571;47.512;19.054;2023-03-24T03:47:29;21.70;;;13.10;;
75890;SDS011;64571;47.512;19.054;2023-03-24T03:50:34;23.00;;;13.23;;
75890;SDS011;64571;47.512;19.054;2023-03-24T03:53:52;23.25;;;12.68;;
75890;SDS011;64571;47.512;19.054;2023-03-24T03:56:59;21.65;;;12.68;;
75890;SDS011;64571;47.512;19.054;2023-03-24T04:00:03;23.48;;;12.80;;
75890;SDS011;64571;47.512;19.054;2023-03-24T04:07:01;27.43;;;13.50;;
75890;SDS011;64571;47.512;19.054;2023-03-24T04:24:36;20.67;;;12.40;;
75890;SDS011;64571;47.512;19.054;2023-03-24T04:27:47;22.48;;;13.55;;
75890;SDS011;64571;47.512;19.054;2023-03-24T04:34:48;23.45;;;13.75;;
75890;SDS011;64571;47.512;19.054;2023-03-24T04:38:04;23.05;;;13.73;;
75890;SDS011;64571;47.512;19.054;2023-03-24T04:41:11;27.80;;;13.70;;
75890;SDS011;64571;47.512;19.054;2023-03-24T04:44:20;27.62;;;13.68;;
75890;SDS011;64571;47.512;19.054;2023-03-24T04:47:26;24.30;;;13.25;;
75890;SDS011;64571;47.512;19.054;2023-03-24T04:53:41;23.90;;;13.10;;
75890;SDS011;64571;47.512;19.054;2023-03-24T04:56:45;31.00;;;15.27;;
75890;SDS011;64571;47.512;19.054;2023-03-24T04:59:51;24.35;;;13.95;;
75890;SDS011;64571;47.512;19.054;2023-03-24T05:02:55;76.65;;;16.37;;
75890;SDS011;64571;47.512;19.054;2023-03-24T05:05:58;36.72;;;13.90;;
75890;SDS011;64571;47.512;19.054;2023-03-24T05:09:00;24.10;;;12.75;;
75890;SDS011;64571;47.512;19.054;2023-03-24T05:12:03;26.73;;;13.07;;
75890;SDS011;64571;47.512;19.054;2023-03-24T05:15:06;24.23;;;12.95;;
75890;SDS011;64571;47.512;19.054;2023-03-24T05:18:10;26.67;;;14.18;;
75890;SDS011;64571;47.512;19.054;2023-03-24T05:21:13;21.90;;;13.05;;
75890;SDS011;64571;47.512;19.054;2023-03-24T05:24:15;20.80;;;12.85;;
75890;SDS011;64571;47.512;19.054;2023-03-24T05:27:18;24.20;;;13.23;;
75890;SDS011;64571;47.512;19.054;2023-03-24T05:30:21;25.88;;;13.60;;
75890;SDS011;64571;47.512;19.054;2023-03-24T05:33:24;25.27;;;13.77;;
75890;SDS011;64571;47.512;19.054;2023-03-24T05:36:27;25.60;;;13.32;;
75890;SDS011;64571;47.512;19.054;2023-03-24T05:39:30;21.52;;;13.77;;
75890;SDS011;64571;47.512;19.054;2023-03-24T05:42:33;26.90;;;14.27;;
75890;SDS011;64571;47.512;19.054;2023-03-24T05:45:37;22.58;;;13.27;;
75890;SDS011;64571;47.512;19.054;2023-03-24T05:48:40;28.75;;;14.23;;
75890;SDS011;64571;47.512;19.054;2023-03-24T05:51:44;23.90;;;14.18;;
75890;SDS011;64571;47.512;19.054;2023-03-24T05:54:46;22.33;;;14.15;;
75890;SDS011;64571;47.512;19.054;2023-03-24T05:57:53;21.50;;;13.43;;
75890;SDS011;64571;47.512;19.054;2023-03-24T06:00:57;31.12;;;14.30;;
75890;SDS011;64571;47.512;19.054;2023-03-24T06:04:02;23.60;;;14.38;;
75890;SDS011;64571;47.512;19.054;2023-03-24T06:07:05;23.15;;;14.20;;
75890;SDS011;64571;47.512;19.054;2023-03-24T06:10:09;25.62;;;14.02;;
75890;SDS011;64571;47.512;19.054;2023-03-24T06:13:12;22.63;;;13.93;;
75890;SDS011;64571;47.512;19.054;2023-03-24T06:16:16;23.35;;;14.35;;
75890;SDS011;64571;47.512;19.054;2023-03-24T06:19:20;23.73;;;14.13;;
75890;SDS011;64571;47.512;19.054;2023-03-24T06:22:24;25.83;;;14.10;;
75890;SDS011;64571;47.512;19.054;2023-03-24T06:25:26;23.70;;;14.85;;
75890;SDS011;64571;47.512;19.054;2023-03-24T06:28:30;22.67;;;14.37;;
75890;SDS011;64571;47.512;19.054;2023-03-24T06:31:36;24.92;;;14.68;;
75890;SDS011;64571;47.512;19.054;2023-03-24T06:34:39;28.33;;;14.10;;
75890;SDS011;64571;47.512;19.054;2023-03-24T06:37:44;27.42;;;14.40;;
75890;SDS011;64571;47.512;19.054;2023-03-24T06:40:47;23.08;;;14.40;;
75890;SDS011;64571;47.512;19.054;2023-03-24T06:43:50;22.73;;;14.07;;
75890;SDS011;64571;47.512;19.054;2023-03-24T06:46:53;24.77;;;15.02;;
75890;SDS011;64571;47.512;19.054;2023-03-24T06:49:55;24.92;;;14.48;;
75890;SDS011;64571;47.512;19.054;2023-03-24T06:52:59;29.70;;;14.18;;
75890;SDS011;64571;47.512;19.054;2023-03-24T06:56:02;26.92;;;16.90;;
75890;SDS011;64571;47.512;19.054;2023-03-24T06:59:07;26.87;;;16.37;;
75890;SDS011;64571;47.512;19.054;2023-03-24T07:02:10;30.23;;;16.12;;
75890;SDS011;64571;47.512;19.054;2023-03-24T07:05:15;26.87;;;15.90;;
75890;SDS011;64571;47.512;19.054;2023-03-24T07:08:18;25.65;;;15.35;;
75890;SDS011;64571;47.512;19.054;2023-03-24T07:11:39;25.00;;;15.82;;
75890;SDS011;64571;47.512;19.054;2023-03-24T07:14:42;30.00;;;17.73;;
75890;SDS011;64571;47.512;19.054;2023-03-24T07:17:46;29.30;;;15.45;;
75890;SDS011;64571;47.512;19.054;2023-03-24T07:20:49;27.33;;;16.35;;
75890;SDS011;64571;47.512;19.054;2023-03-24T07:23:52;29.17;;;16.35;;
75890;SDS011;64571;47.512;19.054;2023-03-24T07:26:55;26.05;;;16.02;;
75890;SDS011;64571;47.512;19.054;2023-03-24T07:29:58;26.57;;;15.20;;
75890;SDS011;64571;47.512;19.054;2023-03-24T07:33:02;26.20;;;16.55;;
75890;SDS011;64571;47.512;19.054;2023-03-24T07:36:07;27.02;;;15.63;;
75890;SDS011;64571;47.512;19.054;2023-03-24T07:39:10;28.38;;;15.50;;
75890;SDS011;64571;47.512;19.054;2023-03-24T07:42:14;28.42;;;15.30;;
75890;SDS011;64571;47.512;19.054;2023-03-24T07:45:18;30.03;;;15.53;;
75890;SDS011;64571;47.512;19.054;2023-03-24T07:48:21;29.17;;;15.60;;
75890;SDS011;64571;47.512;19.054;2023-03-24T07:51:25;25.25;;;14.93;;
75890;SDS011;64571;47.512;19.054;2023-03-24T07:54:29;26.15;;;14.75;;
75890;SDS011;64571;47.512;19.054;2023-03-24T07:57:32;23.95;;;14.13;;
75890;SDS011;64571;47.512;19.054;2023-03-24T08:00:41;29.53;;;14.00;;
75890;SDS011;64571;47.512;19.054;2023-03-24T08:03:45;22.65;;;14.30;;
75890;SDS011;64571;47.512;19.054;2023-03-24T08:06:50;21.92;;;13.52;;
75890;SDS011;64571;47.512;19.054;2023-03-24T08:09:54;24.05;;;14.32;;
75890;SDS011;64571;47.512;19.054;2023-03-24T08:12:57;27.45;;;14.15;;
75890;SDS011;64571;47.512;19.054;2023-03-24T08:16:00;30.73;;;14.90;;
75890;SDS011;64571;47.512;19.054;2023-03-24T08:19:04;25.95;;;13.73;;
75890;SDS011;64571;47.512;19.054;2023-03-24T08:22:07;23.02;;;13.80;;
75890;SDS011;64571;47.512;19.054;2023-03-24T08:25:10;23.25;;;12.45;;
75890;SDS011;64571;47.512;19.054;2023-03-24T08:28:14;25.35;;;12.43;;
75890;SDS011;64571;47.512;19.054;2023-03-24T08:31:17;22.93;;;11.37;;
75890;SDS011;64571;47.512;19.054;2023-03-24T08:34:20;22.42;;;11.75;;
75890;SDS011;64571;47.512;19.054;2023-03-24T08:37:23;19.58;;;11.18;;
75890;SDS011;64571;47.512;19.054;2023-03-24T08:40:26;20.80;;;12.37;;
75890;SDS011;64571;47.512;19.054;2023-03-24T08:43:30;24.08;;;12.52;;
75890;SDS011;64571;47.512;19.054;2023-03-24T08:46:33;21.53;;;11.77;;
75890;SDS011;64571;47.512;19.054;2023-03-24T08:49:36;20.20;;;11.50;;
75890;SDS011;64571;47.512;19.054;2023-03-24T08:52:38;18.20;;;10.30;;
75890;SDS011;64571;47.512;19.054;2023-03-24T08:55:42;18.20;;;10.88;;
75890;SDS011;64571;47.512;19.054;2023-03-24T08:58:47;17.65;;;10.82;;
75890;SDS011;64571;47.512;19.054;2023-03-24T09:01:52;20.63;;;10.60;;
75890;SDS011;64571;47.512;19.054;2023-03-24T09:04:54;17.83;;;10.60;;
75890;SDS011;64571;47.512;19.054;2023-03-24T09:07:57;21.25;;;11.25;;
75890;SDS011;64571;47.512;19.054;2023-03-24T09:11:01;17.67;;;10.05;;
75890;SDS011;64571;47.512;19.054;2023-03-24T09:14:04;15.98;;;8.80;;
75890;SDS011;64571;47.512;19.054;2023-03-24T09:17:07;14.07;;;8.80;;
75890;SDS011;64571;47.512;19.054;2023-03-24T09:20:13;17.92;;;9.30;;
75890;SDS011;64571;47.512;19.054;2023-03-24T09:23:17;18.10;;;9.52;;
75890;SDS011;64571;47.512;19.054;2023-03-24T09:26:20;18.77;;;10.55;;
75890;SDS011;64571;47.512;19.054;2023-03-24T09:29:24;17.52;;;9.52;;
75890;SDS011;64571;47.512;19.054;2023-03-24T09:32:26;17.43;;;9.10;;
75890;SDS011;64571;47.512;19.054;2023-03-24T09:35:29;18.02;;;8.70;;
75890;SDS011;64571;47.512;19.054;2023-03-24T09:38:31;16.85;;;8.68;;
75890;SDS011;64571;47.512;19.054;2023-03-24T09:41:36;20.50;;;9.88;;
75890;SDS011;64571;47.512;19.054;2023-03-24T09:44:45;21.50;;;9.93;;
75890;SDS011;64571;47.512;19.054;2023-03-24T09:47:54;15.40;;;8.77;;
75890;SDS011;64571;47.512;19.054;2023-03-24T09:51:19;14.68;;;10.40;;
75890;SDS011;64571;47.512;19.054;2023-03-24T09:54:27;16.95;;;9.77;;
75890;SDS011;64571;47.512;19.054;2023-03-24T09:57:41;19.67;;;10.52;;
75890;SDS011;64571;47.512;19.054;2023-03-24T10:00:46;20.45;;;10.77;;
75890;SDS011;64571;47.512;19.054;2023-03-24T10:03:49;17.07;;;9.60;;
75890;SDS011;64571;47.512;19.054;2023-03-24T10:06:57;20.30;;;10.98;;
75890;SDS011;64571;47.512;19.054;2023-03-24T10:10:17;17.40;;;10.50;;
75890;SDS011;64571;47.512;19.054;2023-03-24T10:17:17;15.80;;;10.05;;
75890;SDS011;64571;47.512;19.054;2023-03-24T10:20:43;17.93;;;9.63;;
75890;SDS011;64571;47.512;19.054;2023-03-24T10:26:57;18.08;;;10.27;;
75890;SDS011;64571;47.512;19.054;2023-03-24T10:30:20;15.88;;;9.38;;
75890;SDS011;64571;47.512;19.054;2023-03-24T10:33:28;18.17;;;9.85;;
75890;SDS011;64571;47.512;19.054;2023-03-24T10:36:31;20.00;;;10.13;;
75890;SDS011;64571;47.512;19.054;2023-03-24T10:39:35;15.23;;;8.45;;
75890;SDS011;64571;47.512;19.054;2023-03-24T10:42:46;14.73;;;8.02;;
75890;SDS011;64571;47.512;19.054;2023-03-24T10:46:08;15.30;;;8.07;;
75890;SDS011;64571;47.512;19.054;2023-03-24T10:49:20;18.55;;;9.05;;
75890;SDS011;64571;47.512;19.054;2023-03-24T10:52:24;14.63;;;8.00;;
75890;SDS011;64571;47.512;19.054;2023-03-24T10:55:29;14.80;;;6.25;;
75890;SDS011;64571;47.512;19.054;2023-03-24T11:01:43;12.55;;;6.40;;
75890;SDS011;64571;47.512;19.054;2023-03-24T11:04:54;14.10;;;6.40;;
75890;SDS011;64571;47.512;19.054;2023-03-24T11:08:13;11.10;;;5.23;;
75890;SDS011;64571;47.512;19.054;2023-03-24T11:14:26;13.30;;;5.60;;
75890;SDS011;64571;47.512;19.054;2023-03-24T11:17:29;13.88;;;5.53;;
75890;SDS011;64571;47.512;19.054;2023-03-24T11:23:40;17.77;;;6.03;;
75890;SDS011;64571;47.512;19.054;2023-03-24T11:26:56;10.13;;;5.57;;
75890;SDS011;64571;47.512;19.054;2023-03-24T11:30:02;13.00;;;5.53;;
75890;SDS011;64571;47.512;19.054;2023-03-24T11:33:06;12.82;;;5.68;;
75890;SDS011;64571;47.512;19.054;2023-03-24T11:39:30;11.80;;;4.93;;
75890;SDS011;64571;47.512;19.054;2023-03-24T11:42:44;11.07;;;4.65;;
75890;SDS011;64571;47.512;19.054;2023-03-24T11:46:04;10.75;;;4.60;;
75890;SDS011;64571;47.512;19.054;2023-03-24T11:49:12;9.73;;;4.72;;
75890;SDS011;64571;47.512;19.054;2023-03-24T11:52:23;10.88;;;5.00;;
75890;SDS011;64571;47.512;19.054;2023-03-24T11:55:34;11.67;;;4.50;;
75890;SDS011;64571;47.512;19.054;2023-03-24T11:58:49;10.68;;;4.85;;
75890;SDS011;64571;47.512;19.054;2023-03-24T12:08:36;11.30;;;4.15;;
75890;SDS011;64571;47.512;19.054;2023-03-24T12:11:56;11.07;;;4.13;;
75890;SDS011;64571;47.512;19.054;2023-03-24T12:15:30;7.30;;;3.37;;
